Montvale, NJ

12:02 PM EDT on April 21, 2015 (GMT -0400)
Essex County | | Change Station
CLOSE
Current Station
Airport
Location: Caldwell,
Elevation: 174 ft
Nearby Weather Stations

Elev 174 ft 40.88 °N, 74.28 °W | Updated 9 minutes ago

Partly Cloudy
Partly Cloudy
61 °F
Feels Like 61 °F
N
9
Wind Variable Wind from West
Gusts 21 mph

Today
High -- | Low -- °F
--% Chance of Precip.
Yesterday
High -- | Low -- °F
Precip. -- in
6:08 AM 7:42 PM
Waxing Crescent, 11% visible
Pressure 29.69 in
Visibility 10.0 miles
Clouds Mostly Cloudy 5500 ft
Dew Point 37 °F
Humidity 41%
Rainfall 0.20 in
Snow Depth Not available.
UV 5 out of 12
Pollen 8.70 out of 12
Air Quality Not available.
Flu Activity Regional
METAR KCDW 211553Z 27008G18KT 220V300 10SM BKN055 16/03 A2967 RMK AO2 SLP053 T01610028

More Conditions Fewer Conditions

Pressure 29.69 in
Visibility 10.0 miles
Clouds Mostly Cloudy 5500 ft
Dew Point 37 °F
Humidity 41%
Rainfall 0.20 in
Snow Depth Not available.
UV 5 out of 12
Pollen 8.70 out of 12
Air Quality Not available.
Flu Activity Regional
METAR KCDW 211553Z 27008G18KT 220V300 10SM BKN055 16/03 A2967 RMK AO2 SLP053 T01610028

More Conditions Fewer Conditions

10-Day Weather Forecast

Almanac

Astronomy

Apr. 21, 2015 Rise Set
Actual Time
Civil Twilight
Nautical Twilight
Astronomical Twilight
Moon
Length of Visible Light
Length of Day
Tomorrow will be .
, % of the Moon is Illuminated

Today's Extremes

State Highs State Lows

Community

WunderPhotos

Upload Photos

1,815,433 photos uploaded!

WunderBlogs® & News

Nearby

Air Quality

  Air Quality AQ Index Pollutant
Not available.

Snow Depth

Station Depth Elevation

Earthquake Activity

City Distance Mag. Time & Date
Minimum magnitude displayed is 2.5.

Coastal Water Temperatures

Place Temperature

Stations

Nearby Weather Stations

Station Location Temp. Windchill Dew Point Humidity Wind Precip. Elev Updated Type